createdAt,value
2022-08-17T00:00:40.303Z,20.47
2022-08-17T00:03:17.617Z,20.42
2022-08-17T00:05:51.679Z,20.31
2022-08-17T00:08:24.230Z,20.29
2022-08-17T00:10:55.519Z,20.25
2022-08-17T00:13:28.577Z,20.28
2022-08-17T00:16:00.646Z,20.35
2022-08-17T00:19:06.139Z,20.34
2022-08-17T00:21:25.350Z,20.25
2022-08-17T00:23:55.869Z,20.22
2022-08-17T00:26:44.598Z,20.18
2022-08-17T00:29:19.629Z,20.17
2022-08-17T00:31:49.478Z,20.16
2022-08-17T00:34:18.125Z,20.20
2022-08-17T00:36:46.679Z,20.21
2022-08-17T00:39:15.490Z,20.15
2022-08-17T00:41:45.542Z,20.15
2022-08-17T00:44:14.670Z,20.17
2022-08-17T00:46:47.879Z,20.13
2022-08-17T00:49:19.385Z,20.17
2022-08-17T00:51:55.079Z,20.21
2022-08-17T00:54:33.830Z,20.22
2022-08-17T00:57:19.673Z,20.20
2022-08-17T01:00:03.264Z,20.16
2022-08-17T01:02:50.881Z,20.10
2022-08-17T01:05:25.420Z,20.07
2022-08-17T01:07:56.066Z,20.02
2022-08-17T01:10:57.123Z,19.96
2022-08-17T01:13:28.421Z,19.96
2022-08-17T01:16:02.448Z,19.96
2022-08-17T01:18:32.074Z,19.98
2022-08-17T01:21:08.273Z,20.01
2022-08-17T01:23:42.412Z,19.99
2022-08-17T01:26:10.995Z,19.98
2022-08-17T01:28:54.289Z,19.88
2022-08-17T01:31:26.799Z,19.87
2022-08-17T01:34:00.080Z,19.89
2022-08-17T01:36:30.931Z,19.87
2022-08-17T01:39:02.263Z,19.80
2022-08-17T01:41:31.516Z,19.76
2022-08-17T01:44:06.744Z,19.78
2022-08-17T01:46:38.629Z,19.78
2022-08-17T01:49:09.731Z,19.75
2022-08-17T01:51:38.766Z,19.74
2022-08-17T01:54:14.691Z,19.70
2022-08-17T01:56:49.483Z,19.67
2022-08-17T01:59:19.449Z,19.62
2022-08-17T02:01:48.809Z,19.54
2022-08-17T02:04:18.130Z,19.48
2022-08-17T02:06:53.554Z,19.51
2022-08-17T02:09:26.626Z,19.54
2022-08-17T02:12:37.264Z,19.55
2022-08-17T02:14:52.552Z,19.54
2022-08-17T02:17:21.612Z,19.53
2022-08-17T02:19:50.597Z,19.48
2022-08-17T02:22:20.961Z,19.45
2022-08-17T02:25:01.115Z,19.45
2022-08-17T02:27:31.359Z,19.42
2022-08-17T02:29:59.956Z,19.40
2022-08-17T02:32:29.438Z,19.39
2022-08-17T02:34:59.559Z,19.38
2022-08-17T02:37:29.808Z,19.37
2022-08-17T02:40:00.839Z,19.36
2022-08-17T02:42:34.483Z,19.31
2022-08-17T02:45:05.308Z,19.27
2022-08-17T02:47:34.986Z,19.33
2022-08-17T02:50:03.514Z,19.36
2022-08-17T02:52:43.493Z,19.39
2022-08-17T02:55:18.477Z,19.37
2022-08-17T02:57:48.023Z,19.38
2022-08-17T03:00:21.244Z,19.38
2022-08-17T03:02:50.723Z,19.39
2022-08-17T03:05:23.428Z,19.40
2022-08-17T03:07:53.473Z,19.37
2022-08-17T03:10:25.622Z,19.37
2022-08-17T03:12:56.295Z,19.35
2022-08-17T03:15:28.344Z,19.36
2022-08-17T03:17:58.467Z,19.33
2022-08-17T03:20:30.125Z,19.29
2022-08-17T03:23:01.869Z,19.32
2022-08-17T03:25:41.788Z,19.32
2022-08-17T03:28:15.179Z,19.27
2022-08-17T03:30:43.863Z,19.23
2022-08-17T03:33:14.199Z,19.21
2022-08-17T03:35:43.720Z,19.10
2022-08-17T03:38:15.211Z,19.11
2022-08-17T03:40:58.877Z,19.09
2022-08-17T03:43:32.359Z,19.15
2022-08-17T03:46:28.636Z,19.17
2022-08-17T03:49:22.398Z,19.21
2022-08-17T03:52:08.600Z,19.21
2022-08-17T03:54:54.801Z,19.26
2022-08-17T03:57:26.344Z,19.30
2022-08-17T03:59:56.441Z,19.30
2022-08-17T04:02:29.653Z,19.32
2022-08-17T04:04:59.671Z,19.35
2022-08-17T04:07:31.806Z,19.37
2022-08-17T04:10:00.503Z,19.38
2022-08-17T04:12:44.980Z,19.38
2022-08-17T04:15:14.444Z,19.40
2022-08-17T04:17:45.296Z,19.42
2022-08-17T04:20:16.544Z,19.40
2022-08-17T04:22:58.973Z,19.39
2022-08-17T04:25:29.803Z,19.41
2022-08-17T04:28:00.646Z,19.42
2022-08-17T04:30:34.401Z,19.42
2022-08-17T04:33:08.712Z,19.41
2022-08-17T04:35:41.663Z,19.41
2022-08-17T04:38:16.802Z,19.44
2022-08-17T04:41:03.646Z,19.43
2022-08-17T04:43:36.118Z,19.43
2022-08-17T04:46:08.646Z,19.43
2022-08-17T04:48:40.836Z,19.42
2022-08-17T04:51:15.699Z,19.43
2022-08-17T04:53:53.902Z,19.45
2022-08-17T04:56:26.367Z,19.45
2022-08-17T04:59:00.863Z,19.47
2022-08-17T05:01:33.842Z,19.47
2022-08-17T05:04:33.455Z,19.49
2022-08-17T05:06:56.071Z,19.51
2022-08-17T05:09:24.892Z,19.52
2022-08-17T05:11:55.299Z,19.55
2022-08-17T05:14:32.705Z,19.61
2022-08-17T05:17:07.027Z,19.65
2022-08-17T05:19:36.608Z,19.67
2022-08-17T05:22:06.709Z,19.68
2022-08-17T05:24:42.543Z,19.71
2022-08-17T05:27:19.957Z,19.74
2022-08-17T05:29:50.196Z,19.78
2022-08-17T05:32:38.770Z,19.80
2022-08-17T05:35:11.262Z,19.84
2022-08-17T05:37:39.791Z,19.85
2022-08-17T05:40:10.643Z,19.89
2022-08-17T05:42:39.309Z,19.93
2022-08-17T05:45:11.214Z,19.95
2022-08-17T05:47:41.284Z,19.97
2022-08-17T05:50:18.050Z,19.98
2022-08-17T05:53:00.609Z,20.02
2022-08-17T05:55:44.388Z,20.04
2022-08-17T05:58:29.656Z,20.08
2022-08-17T06:01:08.991Z,20.12
2022-08-17T06:03:50.913Z,20.13
2022-08-17T06:06:39.827Z,20.15
2022-08-17T06:09:35.974Z,20.18
2022-08-17T06:12:35.212Z,20.20
2022-08-17T06:15:29.904Z,20.22
2022-08-17T06:18:05.514Z,20.25
2022-08-17T06:20:48.112Z,20.28
2022-08-17T06:23:25.922Z,20.28
2022-08-17T06:26:04.127Z,20.29
2022-08-17T06:28:42.527Z,20.32
2022-08-17T06:31:21.444Z,20.37
2022-08-17T06:33:52.293Z,20.41
2022-08-17T06:36:48.238Z,20.46
2022-08-17T06:39:37.844Z,20.49
2022-08-17T06:43:04.089Z,20.53
2022-08-17T06:45:17.999Z,20.59
2022-08-17T06:47:54.671Z,20.64
2022-08-17T06:50:38.154Z,20.70
2022-08-17T06:53:19.736Z,20.75
2022-08-17T06:55:59.906Z,20.78
2022-08-17T06:58:31.954Z,20.76
2022-08-17T07:01:10.779Z,20.77
2022-08-17T07:03:49.889Z,20.80
2022-08-17T07:06:26.560Z,20.85
2022-08-17T07:09:02.321Z,20.90
2022-08-17T07:11:40.026Z,20.95
2022-08-17T07:14:28.544Z,20.99
2022-08-17T07:17:02.832Z,21.02
2022-08-17T07:19:36.202Z,21.06
2022-08-17T07:22:21.852Z,21.11
2022-08-17T07:24:58.468Z,21.15
2022-08-17T07:27:31.634Z,21.18
2022-08-17T07:30:10.665Z,21.23
2022-08-17T07:32:49.427Z,21.30
2022-08-17T07:35:40.692Z,21.34
2022-08-17T07:38:24.707Z,21.38
2022-08-17T07:41:04.867Z,21.43
2022-08-17T07:43:36.969Z,21.48
2022-08-17T07:46:35.395Z,21.53
2022-08-17T07:49:26.264Z,21.61
2022-08-17T07:52:24.314Z,21.67
2022-08-17T07:54:51.038Z,21.73
2022-08-17T07:57:36.199Z,21.78
2022-08-17T08:00:26.659Z,21.84
2022-08-17T08:03:13.378Z,21.89
2022-08-17T08:05:55.976Z,21.96
2022-08-17T08:08:33.890Z,22.03
2022-08-17T08:11:10.247Z,22.08
2022-08-17T08:13:42.805Z,22.15
2022-08-17T08:16:27.306Z,22.20
2022-08-17T08:18:59.421Z,22.24
2022-08-17T08:21:47.505Z,22.29
2022-08-17T08:24:47.525Z,22.34
2022-08-17T08:27:35.036Z,22.38
2022-08-17T08:30:11.335Z,22.39
2022-08-17T08:33:17.225Z,22.42
2022-08-17T08:35:56.818Z,22.47
2022-08-17T08:38:40.375Z,22.52
2022-08-17T08:41:43.448Z,22.58
2022-08-17T08:45:01.053Z,22.62
2022-08-17T08:47:46.993Z,22.68
2022-08-17T08:50:38.251Z,22.70
2022-08-17T08:53:27.425Z,22.74
2022-08-17T08:56:03.783Z,22.78
2022-08-17T08:58:50.742Z,22.82
2022-08-17T09:01:32.817Z,22.89
2022-08-17T09:04:27.240Z,22.92
2022-08-17T09:07:12.834Z,23.06
2022-08-17T09:10:00.705Z,23.15
2022-08-17T09:12:42.769Z,23.27
2022-08-17T09:15:21.066Z,23.39
2022-08-17T09:19:01.562Z,23.43
2022-08-17T09:20:58.296Z,23.52
2022-08-17T09:23:35.496Z,23.63
2022-08-17T09:26:13.090Z,23.74
2022-08-17T09:28:51.667Z,23.82
2022-08-17T09:31:33.215Z,23.90
2022-08-17T09:34:10.188Z,23.94
2022-08-17T09:36:49.022Z,23.92
2022-08-17T09:39:30.325Z,23.91
2022-08-17T09:42:08.047Z,23.99
2022-08-17T09:44:42.425Z,24.06
2022-08-17T09:47:22.995Z,24.13
2022-08-17T09:50:00.468Z,24.20
2022-08-17T09:52:31.700Z,24.22
2022-08-17T09:55:02.438Z,24.28
2022-08-17T09:57:50.925Z,24.34
2022-08-17T10:00:28.014Z,24.40
2022-08-17T10:03:28.315Z,24.41
2022-08-17T10:06:14.081Z,24.46
2022-08-17T10:08:54.518Z,24.45
2022-08-17T10:11:48.398Z,24.53
2022-08-17T10:14:37.437Z,24.54
2022-08-17T10:17:22.657Z,24.56
2022-08-17T10:20:03.131Z,24.61
2022-08-17T10:22:59.560Z,24.61
2022-08-17T10:25:55.174Z,24.69
2022-08-17T10:28:31.126Z,24.69
2022-08-17T10:31:33.864Z,24.69
2022-08-17T10:34:19.028Z,24.77
2022-08-17T10:37:01.438Z,24.81
2022-08-17T10:39:52.139Z,24.84
2022-08-17T10:42:33.101Z,24.85
2022-08-17T10:45:16.717Z,24.81
2022-08-17T10:48:05.658Z,24.86
2022-08-17T10:51:08.917Z,24.91
2022-08-17T10:54:01.481Z,24.94
2022-08-17T10:56:51.525Z,24.95
2022-08-17T10:59:55.055Z,25.02
2022-08-17T11:02:31.564Z,25.08
2022-08-17T11:05:29.334Z,25.17
2022-08-17T11:08:46.397Z,25.30
2022-08-17T11:11:52.776Z,25.43
2022-08-17T11:14:49.760Z,25.53
2022-08-17T11:17:45.804Z,25.63
2022-08-17T11:20:58.116Z,25.73
2022-08-17T11:24:07.477Z,25.82
2022-08-17T11:26:46.226Z,25.89
2022-08-17T11:29:27.495Z,25.92
2022-08-17T11:32:07.618Z,25.97
2022-08-17T11:34:43.782Z,25.95
2022-08-17T11:37:42.850Z,25.99
2022-08-17T11:41:00.392Z,25.99
2022-08-17T11:44:30.663Z,26.02
2022-08-17T11:47:33.808Z,26.07
2022-08-17T11:50:56.785Z,26.12
2022-08-17T11:54:32.300Z,26.14
2022-08-17T11:57:22.804Z,26.12
2022-08-17T12:00:07.524Z,26.06
2022-08-17T12:02:48.254Z,26.11
2022-08-17T12:05:34.530Z,26.18
2022-08-17T12:08:18.580Z,26.17
2022-08-17T12:11:05.868Z,26.23
2022-08-17T12:13:47.994Z,26.30
2022-08-17T12:16:22.001Z,26.35
2022-08-17T12:18:58.614Z,26.29
2022-08-17T12:21:48.681Z,26.24
2022-08-17T12:24:33.418Z,26.23
2022-08-17T12:27:06.464Z,26.24
2022-08-17T12:29:38.820Z,26.19
2022-08-17T12:32:20.248Z,26.21
2022-08-17T12:34:51.886Z,26.19
2022-08-17T12:37:24.605Z,26.23
2022-08-17T12:39:58.479Z,26.29
2022-08-17T12:42:31.647Z,26.32
2022-08-17T12:45:00.428Z,26.36
2022-08-17T12:47:31.903Z,26.35
2022-08-17T12:50:28.315Z,26.40
2022-08-17T12:53:02.266Z,26.44
2022-08-17T12:55:38.969Z,26.42
2022-08-17T12:58:14.763Z,26.50
2022-08-17T13:00:51.845Z,26.50
2022-08-17T13:03:26.479Z,26.59
2022-08-17T13:06:01.610Z,26.65
2022-08-17T13:08:36.704Z,26.73
2022-08-17T13:11:09.383Z,26.82
2022-08-17T13:13:41.732Z,26.87
2022-08-17T13:16:22.205Z,26.97
2022-08-17T13:19:05.393Z,27.03
2022-08-17T13:21:35.625Z,27.10
2022-08-17T13:24:17.173Z,27.12
2022-08-17T13:26:50.827Z,27.18
2022-08-17T13:29:26.602Z,27.22
2022-08-17T13:32:14.279Z,27.24
2022-08-17T13:35:12.454Z,27.26
2022-08-17T13:37:38.020Z,27.34
2022-08-17T13:40:36.830Z,27.43
2022-08-17T13:43:06.214Z,27.49
2022-08-17T13:45:50.593Z,27.62
2022-08-17T13:48:28.970Z,27.79
2022-08-17T13:51:18.198Z,27.94
2022-08-17T13:53:59.308Z,28.06
2022-08-17T13:57:03.946Z,28.14
2022-08-17T13:59:55.861Z,28.25
2022-08-17T14:02:28.271Z,28.30
2022-08-17T14:05:00.578Z,28.39
2022-08-17T14:07:35.942Z,28.49
2022-08-17T14:10:12.818Z,28.61
2022-08-17T14:12:44.107Z,28.74
2022-08-17T14:15:17.078Z,28.80
2022-08-17T14:17:46.190Z,28.84
2022-08-17T14:20:15.901Z,28.87
2022-08-17T14:22:51.249Z,28.79
2022-08-17T14:25:25.160Z,28.91
2022-08-17T14:27:56.392Z,28.95
2022-08-17T14:30:31.899Z,28.94
2022-08-17T14:33:02.194Z,28.90
2022-08-17T14:35:31.242Z,28.91
2022-08-17T14:38:02.165Z,28.88
2022-08-17T14:40:31.384Z,28.96
2022-08-17T14:43:01.251Z,29.08
2022-08-17T14:45:33.288Z,29.21
2022-08-17T14:48:07.732Z,29.19
2022-08-17T14:50:37.526Z,29.20
2022-08-17T14:53:15.239Z,29.29
2022-08-17T14:55:47.011Z,29.37
2022-08-17T14:58:18.042Z,29.45
2022-08-17T15:00:46.731Z,29.57
2022-08-17T15:03:15.498Z,29.70
2022-08-17T15:05:45.530Z,29.85
2022-08-17T15:08:16.692Z,29.98
2022-08-17T15:10:45.873Z,30.06
2022-08-17T15:13:21.571Z,30.15
2022-08-17T15:15:51.203Z,30.25
2022-08-17T15:18:20.356Z,30.36
2022-08-17T15:20:50.531Z,30.44
2022-08-17T15:23:24.163Z,30.48
2022-08-17T15:25:55.562Z,30.52
2022-08-17T15:28:24.439Z,30.50
2022-08-17T15:30:54.396Z,30.59
2022-08-17T15:33:29.607Z,30.66
2022-08-17T15:36:01.183Z,30.78
2022-08-17T15:38:39.195Z,30.78
2022-08-17T15:41:15.024Z,30.77
2022-08-17T15:43:46.719Z,30.73
2022-08-17T15:46:18.882Z,30.67
2022-08-17T15:48:52.330Z,30.60
2022-08-17T15:51:25.171Z,30.59
2022-08-17T15:53:58.059Z,30.60
2022-08-17T15:56:27.862Z,30.55
2022-08-17T15:58:57.613Z,30.51
2022-08-17T16:03:11.143Z,30.47
2022-08-17T16:04:29.937Z,30.25
2022-08-17T16:06:59.999Z,30.13
2022-08-17T16:09:30.119Z,30.08
2022-08-17T16:11:58.684Z,30.04
2022-08-17T16:14:34.986Z,30.02
2022-08-17T16:17:04.524Z,29.98
2022-08-17T16:19:34.999Z,29.96
2022-08-17T16:22:05.230Z,29.91
2022-08-17T16:24:37.269Z,29.89
2022-08-17T16:27:12.666Z,29.78
2022-08-17T16:29:42.438Z,29.63
2022-08-17T16:32:21.757Z,29.60
2022-08-17T16:35:03.557Z,29.51
2022-08-17T16:37:34.200Z,29.44
2022-08-17T16:40:07.807Z,29.44
2022-08-17T16:42:39.859Z,29.49
2022-08-17T16:45:13.060Z,29.44
2022-08-17T16:47:42.514Z,29.47
2022-08-17T16:50:15.376Z,29.46
2022-08-17T16:52:45.721Z,29.50
2022-08-17T16:55:20.329Z,29.44
2022-08-17T16:57:50.164Z,29.45
2022-08-17T17:00:21.037Z,29.35
2022-08-17T17:02:51.017Z,29.26
2022-08-17T17:05:42.975Z,29.25
2022-08-17T17:08:16.171Z,29.19
2022-08-17T17:10:50.931Z,29.15
2022-08-17T17:13:31.493Z,29.16
2022-08-17T17:16:18.604Z,29.13
2022-08-17T17:19:06.652Z,29.09
2022-08-17T17:21:44.921Z,29.06
2022-08-17T17:24:20.053Z,29.00
2022-08-17T17:27:21.137Z,28.88
2022-08-17T17:30:10.069Z,28.81
2022-08-17T17:32:45.879Z,28.75
2022-08-17T17:35:24.242Z,28.77
2022-08-17T17:37:58.400Z,28.79
2022-08-17T17:40:39.168Z,28.73
2022-08-17T17:43:37.741Z,28.72
2022-08-17T17:46:27.652Z,28.70
2022-08-17T17:48:58.245Z,28.69
2022-08-17T17:52:07.690Z,28.64
2022-08-17T17:54:54.103Z,28.60
2022-08-17T17:57:44.201Z,28.57
2022-08-17T18:00:19.731Z,28.47
2022-08-17T18:03:19.541Z,28.46
2022-08-17T18:06:14.965Z,28.45
2022-08-17T18:09:10.257Z,28.39
2022-08-17T18:12:06.050Z,28.33
2022-08-17T18:15:23.066Z,28.28
2022-08-17T18:18:37.994Z,28.14
2022-08-17T18:21:15.860Z,28.04
2022-08-17T18:23:56.877Z,27.94
2022-08-17T18:26:51.408Z,27.85
2022-08-17T18:29:45.521Z,27.74
2022-08-17T18:32:36.418Z,27.68
2022-08-17T18:35:35.425Z,27.60
2022-08-17T18:38:23.450Z,27.49
2022-08-17T18:41:02.838Z,27.37
2022-08-17T18:43:36.511Z,27.30
2022-08-17T18:46:29.832Z,27.23
2022-08-17T18:49:02.211Z,27.15
2022-08-17T18:51:41.780Z,27.06
2022-08-17T18:54:23.704Z,26.98
2022-08-17T18:56:56.456Z,26.93
2022-08-17T18:59:42.635Z,26.87
2022-08-17T19:02:43.813Z,26.80
2022-08-17T19:05:31.900Z,26.75
2022-08-17T19:08:24.345Z,26.69
2022-08-17T19:11:01.783Z,26.52
2022-08-17T19:13:40.300Z,26.50
2022-08-17T19:16:18.705Z,26.46
2022-08-17T19:18:53.992Z,26.42
2022-08-17T19:21:31.585Z,26.37
2022-08-17T19:24:11.234Z,26.31
2022-08-17T19:26:54.709Z,26.27
2022-08-17T19:29:34.345Z,26.21
2022-08-17T19:32:03.455Z,26.17
2022-08-17T19:34:36.294Z,26.10
2022-08-17T19:37:16.429Z,26.02
2022-08-17T19:40:07.482Z,25.99
2022-08-17T19:42:52.745Z,25.93
2022-08-17T19:45:42.255Z,25.86
2022-08-17T19:48:27.158Z,25.82
2022-08-17T19:51:04.031Z,25.75
2022-08-17T19:54:04.426Z,25.69
2022-08-17T19:56:48.778Z,25.65
2022-08-17T19:59:35.784Z,25.63
2022-08-17T20:02:26.101Z,25.57
2022-08-17T20:05:03.273Z,25.52
2022-08-17T20:07:46.671Z,25.49
2022-08-17T20:10:25.292Z,25.44
2022-08-17T20:13:04.183Z,25.43
2022-08-17T20:15:40.633Z,25.38
2022-08-17T20:18:21.691Z,25.36
2022-08-17T20:21:01.335Z,25.31
2022-08-17T20:23:46.566Z,25.24
2022-08-17T20:26:23.912Z,25.20
2022-08-17T20:29:36.811Z,25.12
2022-08-17T20:32:26.884Z,25.03
2022-08-17T20:35:25.842Z,24.94
2022-08-17T20:38:02.086Z,24.90
2022-08-17T20:40:38.423Z,24.87
2022-08-17T20:43:49.044Z,24.76
2022-08-17T20:46:58.569Z,24.70
2022-08-17T20:49:45.797Z,24.68
2022-08-17T20:52:38.532Z,24.65
2022-08-17T20:55:08.221Z,24.56
2022-08-17T20:57:49.086Z,24.49
2022-08-17T21:00:46.779Z,24.40
2022-08-17T21:03:52.355Z,24.42
2022-08-17T21:06:27.128Z,24.44
2022-08-17T21:09:20.024Z,24.42
2022-08-17T21:12:05.662Z,24.35
2022-08-17T21:15:05.394Z,24.37
2022-08-17T21:17:52.554Z,24.35
2022-08-17T21:20:39.514Z,24.33
2022-08-17T21:23:36.335Z,24.28
2022-08-17T21:26:26.735Z,24.28
2022-08-17T21:29:31.858Z,24.22
2022-08-17T21:32:24.663Z,24.13
2022-08-17T21:35:48.395Z,24.13
2022-08-17T21:38:21.069Z,24.13
2022-08-17T21:40:55.435Z,24.07
2022-08-17T21:43:32.548Z,24.04
2022-08-17T21:46:08.313Z,24.01
2022-08-17T21:48:45.825Z,24.00
2022-08-17T21:51:23.867Z,24.00
2022-08-17T21:53:57.239Z,23.97
2022-08-17T21:56:31.700Z,23.95
2022-08-17T21:59:03.970Z,23.93
2022-08-17T22:01:37.414Z,23.92
2022-08-17T22:04:21.343Z,23.86
2022-08-17T22:06:57.247Z,23.80
2022-08-17T22:09:29.526Z,23.76
2022-08-17T22:12:10.814Z,23.72
2022-08-17T22:14:51.580Z,23.67
2022-08-17T22:17:27.440Z,23.64
2022-08-17T22:20:01.395Z,23.59
2022-08-17T22:22:58.940Z,23.59
2022-08-17T22:25:29.622Z,23.58
2022-08-17T22:28:01.741Z,23.53
2022-08-17T22:30:36.441Z,23.55
2022-08-17T22:33:42.016Z,23.50
2022-08-17T22:36:29.840Z,23.41
2022-08-17T22:39:02.879Z,23.41
2022-08-17T22:41:52.568Z,23.40
2022-08-17T22:44:29.666Z,23.40
2022-08-17T22:47:03.781Z,23.38
2022-08-17T22:49:53.272Z,23.37
2022-08-17T22:52:34.517Z,23.35
2022-08-17T22:55:27.039Z,23.31
2022-08-17T22:58:12.875Z,23.31
2022-08-17T23:00:46.157Z,23.29
2022-08-17T23:03:19.716Z,23.29
2022-08-17T23:06:05.304Z,23.27
2022-08-17T23:08:36.117Z,23.22
2022-08-17T23:11:07.599Z,23.22
2022-08-17T23:13:38.103Z,23.22
2022-08-17T23:16:06.771Z,23.23
2022-08-17T23:18:36.415Z,23.19
2022-08-17T23:21:07.764Z,23.18
2022-08-17T23:23:37.714Z,23.20
2022-08-17T23:26:11.424Z,23.21
2022-08-17T23:28:41.139Z,23.20
2022-08-17T23:31:09.920Z,23.18
2022-08-17T23:33:41.770Z,23.16
2022-08-17T23:36:15.398Z,23.15
2022-08-17T23:38:46.729Z,23.16
2022-08-17T23:41:21.302Z,23.16
2022-08-17T23:43:53.893Z,23.13
2022-08-17T23:46:25.090Z,23.12
2022-08-17T23:48:54.249Z,23.12
2022-08-17T23:51:29.040Z,23.07
2022-08-17T23:54:09.362Z,23.05
2022-08-17T23:56:42.721Z,23.05
2022-08-17T23:59:11.702Z,22.99
